Time;durP1;ratioP1;P1;durP2;ratioP2;P2;SDS_P1;SDS_P2;PMS_P1;PMS_P2;Temp;Humidity;BMP_temperature;BMP_pressure;BME280_temperature;BME280_humidity;BME280_pressure;Samples;Min_cycle;Max_cycle;Signal;HPM_P1;HPM_P2
2022/10/20 00:00:58;;;;;;;12.60;5.23;;;;;;;16.67;100.00;101590.38;5007074;28;20031;-51
2022/10/20 00:03:25;;;;;;;15.77;6.18;;;;;;;16.67;100.00;101590.38;5001940;28;20026;-47
2022/10/20 00:05:52;;;;;;;12.85;5.32;;;;;;;16.58;100.00;101586.28;5002507;28;20709;-48
2022/10/20 00:08:18;;;;;;;10.77;5.22;;;;;;;16.54;100.00;101587.75;5005719;28;20061;-50
2022/10/20 00:10:54;;;;;;;9.77;5.53;;;;;;;16.45;100.00;101574.53;5008370;28;20042;-52
2022/10/20 00:13:20;;;;;;;10.23;5.55;;;;;;;16.34;100.00;101569.81;4993838;28;20027;-52
2022/10/20 00:15:50;;;;;;;12.33;6.07;;;;;;;16.38;100.00;101570.22;4996511;28;20106;-50
2022/10/20 00:18:16;;;;;;;18.02;5.32;;;;;;;16.39;100.00;101572.69;5001203;28;20061;-47
2022/10/20 00:20:42;;;;;;;17.85;6.00;;;;;;;16.51;100.00;101569.28;4997825;28;20034;-50
2022/10/20 00:23:07;;;;;;;9.30;5.50;;;;;;;16.36;100.00;101562.31;5003979;28;20037;-50
2022/10/20 00:25:33;;;;;;;11.45;5.65;;;;;;;16.39;100.00;101551.09;5000913;28;20185;-50
2022/10/20 00:27:58;;;;;;;16.97;5.90;;;;;;;16.51;100.00;101548.53;5005076;28;20096;-48
2022/10/20 00:30:23;;;;;;;14.03;6.73;;;;;;;15.96;100.00;101546.34;5003106;28;20058;-49
2022/10/20 00:32:49;;;;;;;10.90;5.82;;;;;;;16.17;100.00;101540.63;5002536;28;20034;-49
2022/10/20 00:35:14;;;;;;;16.77;6.43;;;;;;;16.07;100.00;101537.56;5007452;28;20163;-49
2022/10/20 00:37:41;;;;;;;17.65;6.47;;;;;;;16.02;100.00;101526.59;5004142;28;20026;-51
2022/10/20 00:40:07;;;;;;;11.57;6.00;;;;;;;15.94;100.00;101529.56;5004403;28;20039;-50
2022/10/20 00:42:32;;;;;;;13.70;5.85;;;;;;;16.15;100.00;101523.84;4997435;28;20046;-46
2022/10/20 00:44:59;;;;;;;11.93;5.97;;;;;;;15.96;100.00;101514.78;4994597;28;20063;-51
2022/10/20 00:47:32;;;;;;;12.00;6.13;;;;;;;16.14;100.00;101532.94;5005128;28;20038;-49
2022/10/20 00:50:05;;;;;;;13.77;6.68;;;;;;;16.26;100.00;101527.72;5000997;28;20046;-48
2022/10/20 00:52:30;;;;;;;15.63;6.80;;;;;;;16.28;100.00;101527.50;5003362;28;20094;-52
2022/10/20 00:54:59;;;;;;;14.20;6.85;;;;;;;16.32;100.00;101542.19;4999606;28;20088;-52
2022/10/20 00:57:24;;;;;;;16.35;7.38;;;;;;;16.25;100.00;101533.31;5007902;28;20088;-51
2022/10/20 00:59:50;;;;;;;11.07;6.17;;;;;;;16.20;100.00;101525.88;5003991;28;20050;-51
2022/10/20 01:02:15;;;;;;;17.27;7.90;;;;;;;16.17;100.00;101516.34;5013606;28;20034;-50
2022/10/20 01:04:41;;;;;;;15.93;7.30;;;;;;;16.24;100.00;101516.28;5004644;28;20038;-49
2022/10/20 01:07:07;;;;;;;13.25;6.70;;;;;;;15.98;100.00;101519.97;5003862;28;20040;-49
2022/10/20 01:09:33;;;;;;;12.73;6.37;;;;;;;16.10;100.00;101510.16;5011175;28;20043;-50
2022/10/20 01:12:25;;;;;;;23.45;7.53;;;;;;;16.09;100.00;101508.50;5006379;28;20283;-47
2022/10/20 01:15:07;;;;;;;15.98;6.85;;;;;;;16.19;100.00;101495.38;4999344;28;20050;-51
2022/10/20 01:17:38;;;;;;;17.48;6.93;;;;;;;16.12;100.00;101496.44;4999877;28;20039;-48
2022/10/20 01:20:22;;;;;;;14.68;7.28;;;;;;;16.11;100.00;101490.22;5000550;28;20805;-50
2022/10/20 01:23:06;;;;;;;12.18;6.47;;;;;;;16.04;100.00;101486.75;5000497;28;20054;-50
2022/10/20 01:25:55;;;;;;;15.77;7.47;;;;;;;15.94;100.00;101481.00;5003050;28;20045;-50
2022/10/20 01:28:40;;;;;;;16.70;7.28;;;;;;;15.76;100.00;101463.63;5003482;28;20031;-51
2022/10/20 01:31:27;;;;;;;15.13;7.00;;;;;;;15.96;100.00;101465.41;5009764;28;20042;-53
2022/10/20 01:34:05;;;;;;;15.35;7.07;;;;;;;16.02;100.00;101461.84;5002887;28;20045;-49
2022/10/20 01:36:57;;;;;;;11.45;6.68;;;;;;;15.95;100.00;101464.59;5003971;28;20097;-48
2022/10/20 01:39:50;;;;;;;18.58;7.65;;;;;;;15.84;100.00;101470.63;5009193;28;20078;-50
2022/10/20 01:42:22;;;;;;;15.93;7.35;;;;;;;15.97;100.00;101456.28;5002218;28;20065;-49
2022/10/20 01:44:50;;;;;;;16.80;8.07;;;;;;;16.20;100.00;101444.91;5010065;28;20046;-50
2022/10/20 01:47:17;;;;;;;21.95;10.02;;;;;;;15.94;100.00;101451.31;5008740;28;20057;-48
2022/10/20 01:49:45;;;;;;;13.70;7.57;;;;;;;15.82;100.00;101434.97;5015023;28;20106;-49
2022/10/20 01:52:11;;;;;;;14.88;8.70;;;;;;;15.81;100.00;101427.94;5017647;28;20061;-50
2022/10/20 01:54:37;;;;;;;18.88;7.57;;;;;;;15.70;100.00;101434.81;5008332;28;20064;-47
2022/10/20 01:57:41;;;;;;;14.85;7.55;;;;;;;15.84;100.00;101422.09;5005473;28;20102;-50
2022/10/20 02:00:11;;;;;;;19.13;8.23;;;;;;;15.89;100.00;101417.72;5008059;28;20111;-52
2022/10/20 02:03:12;;;;;;;14.35;7.72;;;;;;;15.99;100.00;101419.94;5013129;28;20063;-52
2022/10/20 02:06:10;;;;;;;18.58;8.30;;;;;;;16.05;100.00;101412.84;5013746;28;20103;-49
2022/10/20 02:08:44;;;;;;;16.75;8.68;;;;;;;16.03;100.00;101410.38;5000206;28;20022;-48
2022/10/20 02:11:25;;;;;;;18.35;8.98;;;;;;;16.16;100.00;101412.16;5004447;28;20128;-49
2022/10/20 02:13:55;;;;;;;17.23;8.25;;;;;;;16.04;100.00;101408.50;5000698;28;20086;-49
2022/10/20 02:16:31;;;;;;;15.50;8.68;;;;;;;16.05;100.00;101419.09;5010895;28;20040;-51
2022/10/20 02:18:58;;;;;;;17.15;9.13;;;;;;;15.75;100.00;101419.63;5009869;28;20034;-47
2022/10/20 02:21:25;;;;;;;14.68;8.38;;;;;;;16.09;100.00;101416.75;5008010;28;20047;-51
2022/10/20 02:23:52;;;;;;;19.30;8.70;;;;;;;16.02;100.00;101418.69;5010422;28;20043;-50
2022/10/20 02:26:22;;;;;;;18.25;8.73;;;;;;;16.00;100.00;101410.00;5008432;28;20040;-47
2022/10/20 02:28:54;;;;;;;18.98;9.18;;;;;;;16.16;100.00;101404.06;5011716;28;20069;-49
2022/10/20 02:31:21;;;;;;;19.23;9.32;;;;;;;16.09;100.00;101394.38;5006144;28;20034;-48
2022/10/20 02:33:47;;;;;;;20.75;9.82;;;;;;;15.94;100.00;101398.19;5001168;28;20062;-49
2022/10/20 02:36:18;;;;;;;17.30;9.68;;;;;;;15.66;100.00;101391.28;5006020;28;20030;-49
2022/10/20 02:38:44;;;;;;;21.67;9.40;;;;;;;15.74;100.00;101392.91;5002781;28;20028;-47
2022/10/20 02:41:09;;;;;;;22.87;9.53;;;;;;;15.85;100.00;101394.09;5001233;28;20068;-47
2022/10/20 02:43:36;;;;;;;19.08;9.02;;;;;;;16.15;100.00;101388.09;5006617;28;20037;-48
2022/10/20 02:46:02;;;;;;;20.42;9.52;;;;;;;16.01;100.00;101381.97;5000633;28;20035;-48
2022/10/20 02:48:28;;;;;;;26.98;10.65;;;;;;;15.98;100.00;101374.31;5009114;28;20031;-53
2022/10/20 02:50:53;;;;;;;19.13;9.50;;;;;;;16.16;100.00;101371.69;5009355;28;20054;-48
2022/10/20 02:53:19;;;;;;;18.60;9.23;;;;;;;15.96;100.00;101362.91;5001363;28;20050;-51
2022/10/20 02:55:44;;;;;;;22.73;10.43;;;;;;;15.87;100.00;101349.66;4997299;28;20318;-50
2022/10/20 02:58:10;;;;;;;18.37;9.60;;;;;;;15.96;100.00;101354.81;5006074;28;20031;-50
2022/10/20 03:00:35;;;;;;;18.67;9.07;;;;;;;16.05;100.00;101343.56;5010039;28;20280;-50
2022/10/20 03:03:01;;;;;;;22.77;10.23;;;;;;;15.96;100.00;101336.75;4997764;28;20066;-48
2022/10/20 03:05:26;;;;;;;24.93;10.47;;;;;;;15.97;100.00;101330.31;4999656;28;20049;-48
2022/10/20 03:07:52;;;;;;;21.17;10.38;;;;;;;15.88;100.00;101332.44;4998883;28;20106;-54
2022/10/20 03:10:18;;;;;;;17.48;8.43;;;;;;;15.83;100.00;101326.06;5005278;28;20038;-47
2022/10/20 03:12:44;;;;;;;27.90;9.90;;;;;;;15.71;100.00;101323.25;5011938;28;20039;-50
2022/10/20 03:15:10;;;;;;;22.77;10.60;;;;;;;15.94;100.00;101314.56;4995813;28;20035;-53
2022/10/20 03:17:36;;;;;;;26.67;10.05;;;;;;;15.71;100.00;101318.66;4996969;28;20297;-50
2022/10/20 03:20:01;;;;;;;21.70;9.63;;;;;;;15.86;100.00;101304.84;4995363;28;20067;-48
2022/10/20 03:22:27;;;;;;;24.17;11.07;;;;;;;16.09;100.00;101292.66;5001559;28;20041;-52
2022/10/20 03:24:53;;;;;;;26.53;11.70;;;;;;;15.95;100.00;101286.56;5013804;28;20035;-50
2022/10/20 03:27:18;;;;;;;17.10;9.73;;;;;;;15.69;100.00;101298.38;4999341;28;20048;-47
2022/10/20 03:29:44;;;;;;;22.97;9.20;;;;;;;16.15;100.00;101299.03;4998083;28;20337;-51
2022/10/20 03:32:09;;;;;;;21.57;9.47;;;;;;;16.01;100.00;101290.25;4995511;28;20035;-51
2022/10/20 03:34:35;;;;;;;19.23;8.57;;;;;;;16.04;100.00;101285.25;4999326;28;20288;-51
2022/10/20 03:37:00;;;;;;;23.53;10.67;;;;;;;16.07;100.00;101269.66;4995885;28;20094;-48
2022/10/20 03:39:26;;;;;;;21.42;9.30;;;;;;;16.06;100.00;101268.81;4988157;28;20300;-49
2022/10/20 03:41:53;;;;;;;20.92;10.38;;;;;;;15.99;100.00;101266.19;5002000;28;20090;-48
2022/10/20 03:44:19;;;;;;;18.77;10.07;;;;;;;15.99;100.00;101254.59;5003335;28;20035;-52
2022/10/20 03:46:44;;;;;;;16.67;9.90;;;;;;;16.00;100.00;101253.53;4991753;28;20062;-47
2022/10/20 03:49:10;;;;;;;15.85;9.15;;;;;;;16.01;100.00;101252.47;4993999;28;20041;-51
2022/10/20 03:51:36;;;;;;;19.02;9.38;;;;;;;16.09;100.00;101245.97;5000210;28;20106;-49
2022/10/20 03:54:02;;;;;;;16.27;9.47;;;;;;;15.94;100.00;101249.03;4996545;28;20039;-52
2022/10/20 03:56:27;;;;;;;21.27;9.10;;;;;;;16.06;100.00;101244.53;4997223;28;20115;-52
2022/10/20 03:58:52;;;;;;;21.20;9.27;;;;;;;15.91;100.00;101250.28;5003642;28;20309;-47
2022/10/20 04:01:23;;;;;;;18.38;9.75;;;;;;;15.95;100.00;101253.38;4997390;28;20035;-46
2022/10/20 04:03:49;;;;;;;20.10;10.18;;;;;;;16.11;100.00;101260.06;5001611;28;20127;-51
2022/10/20 04:06:15;;;;;;;22.30;11.10;;;;;;;16.09;100.00;101265.69;5002044;28;20045;-48
2022/10/20 04:08:41;;;;;;;23.23;9.57;;;;;;;16.07;100.00;101256.19;4996356;28;20052;-48
2022/10/20 04:11:06;;;;;;;19.00;11.13;;;;;;;16.05;100.00;101253.69;5020459;28;20035;-46
2022/10/20 04:13:32;;;;;;;22.03;10.60;;;;;;;16.25;100.00;101234.59;5004420;28;20303;-51
2022/10/20 04:15:57;;;;;;;15.83;9.13;;;;;;;16.19;100.00;101224.69;5007322;28;20027;-48
2022/10/20 04:18:22;;;;;;;20.00;10.03;;;;;;;16.08;100.00;101231.66;4994164;28;20034;-49
2022/10/20 04:20:48;;;;;;;19.75;9.57;;;;;;;16.17;100.00;101234.91;4992776;28;20039;-47
2022/10/20 04:23:14;;;;;;;24.07;10.70;;;;;;;16.23;100.00;101233.19;5007573;28;20042;-46
2022/10/20 04:25:47;;;;;;;23.23;11.30;;;;;;;16.31;100.00;101230.19;4995090;28;20265;-48
2022/10/20 04:28:17;;;;;;;24.10;10.95;;;;;;;16.09;100.00;101216.31;5000063;28;20039;-49
2022/10/20 04:30:44;;;;;;;23.55;10.52;;;;;;;16.28;100.00;101217.13;4998557;28;20113;-50
2022/10/20 04:33:10;;;;;;;21.70;10.68;;;;;;;15.97;100.00;101208.94;4995711;28;20034;-47
2022/10/20 04:35:35;;;;;;;18.75;10.07;;;;;;;16.03;100.00;101208.06;5002261;28;20231;-51
2022/10/20 04:38:01;;;;;;;17.87;10.53;;;;;;;16.37;100.00;101206.88;5006292;28;20037;-51
2022/10/20 04:40:26;;;;;;;18.95;9.88;;;;;;;15.98;100.00;101209.78;5012799;28;20043;-49
2022/10/20 04:42:52;;;;;;;23.77;11.43;;;;;;;16.04;100.00;101192.69;5012510;28;20045;-51
2022/10/20 04:45:17;;;;;;;21.58;9.98;;;;;;;15.66;100.00;101188.25;5011205;28;20045;-50
2022/10/20 04:47:43;;;;;;;24.20;10.93;;;;;;;15.93;100.00;101182.66;5010715;28;20034;-49
2022/10/20 04:50:09;;;;;;;27.20;13.05;;;;;;;16.29;100.00;101181.00;5007815;28;20063;-50
2022/10/20 04:52:34;;;;;;;30.40;15.67;;;;;;;16.38;100.00;101186.94;5002410;28;20038;-48
2022/10/20 04:55:00;;;;;;;23.13;12.60;;;;;;;16.48;100.00;101190.75;5006302;28;20265;-51
2022/10/20 04:57:26;;;;;;;40.33;19.13;;;;;;;16.46;100.00;101192.00;5011879;28;20053;-47
2022/10/20 04:59:52;;;;;;;24.92;10.88;;;;;;;16.38;100.00;101189.63;4999139;28;20043;-49
2022/10/20 05:02:17;;;;;;;19.08;9.65;;;;;;;16.54;100.00;101183.63;5018575;28;20102;-49
2022/10/20 05:04:43;;;;;;;23.60;10.37;;;;;;;16.51;100.00;101181.38;4996536;28;20080;-50
2022/10/20 05:07:08;;;;;;;17.70;10.20;;;;;;;16.54;100.00;101174.69;5008997;28;20031;-50
2022/10/20 05:09:34;;;;;;;17.02;10.18;;;;;;;16.40;100.00;101172.16;5014780;28;20069;-50
2022/10/20 05:11:59;;;;;;;21.97;10.07;;;;;;;16.52;100.00;101171.38;4999169;28;20039;-51
2022/10/20 05:14:25;;;;;;;28.30;11.93;;;;;;;16.59;100.00;101170.25;5002355;28;20041;-55
2022/10/20 05:16:51;;;;;;;25.42;10.93;;;;;;;16.47;100.00;101174.75;4998453;28;20026;-50
2022/10/20 05:19:17;;;;;;;19.23;10.83;;;;;;;16.67;100.00;101171.81;5008474;28;20043;-52
2022/10/20 05:21:43;;;;;;;22.90;11.30;;;;;;;16.70;100.00;101176.75;5009169;28;20050;-53
2022/10/20 05:24:16;;;;;;;21.38;10.18;;;;;;;16.67;100.00;101162.88;5003755;28;20034;-51
2022/10/20 05:26:41;;;;;;;24.40;10.53;;;;;;;16.65;100.00;101155.03;4997364;28;20041;-55
2022/10/20 05:29:08;;;;;;;37.50;10.65;;;;;;;16.42;100.00;101126.88;5004068;28;20273;-56
2022/10/20 05:31:42;;;;;;;19.33;10.50;;;;;;;16.47;100.00;101134.28;5009598;28;20063;-52
2022/10/20 05:34:09;;;;;;;18.57;9.57;;;;;;;16.58;100.00;101132.69;5001200;28;20272;-56
2022/10/20 05:36:35;;;;;;;21.02;11.02;;;;;;;16.68;100.00;101140.22;4999570;28;20284;-54
2022/10/20 05:39:00;;;;;;;25.30;11.00;;;;;;;16.85;100.00;101151.22;5005653;28;20086;-52
2022/10/20 05:41:29;;;;;;;20.63;10.13;;;;;;;16.53;100.00;101157.69;5002179;28;20101;-57
2022/10/20 05:43:57;;;;;;;19.97;11.23;;;;;;;16.42;100.00;101171.94;5009030;28;20091;-54
2022/10/20 05:46:23;;;;;;;22.37;11.40;;;;;;;16.61;100.00;101148.44;4991015;28;20299;-54
2022/10/20 05:48:52;;;;;;;24.63;10.97;;;;;;;16.63;100.00;101122.03;4988768;28;20275;-55
2022/10/20 05:51:19;;;;;;;24.00;11.07;;;;;;;16.69;100.00;101106.78;4990851;28;20296;-53
2022/10/20 05:53:48;;;;;;;19.33;10.43;;;;;;;16.59;100.00;101112.72;4999822;28;20273;-56
2022/10/20 05:56:16;;;;;;;25.13;10.97;;;;;;;16.80;100.00;101113.25;5004249;28;20303;-51
2022/10/20 05:58:42;;;;;;;23.63;11.13;;;;;;;16.54;100.00;101120.69;5000157;28;20308;-55
2022/10/20 06:01:17;;;;;;;29.73;11.45;;;;;;;16.73;100.00;101122.28;4996649;28;20363;-56
2022/10/20 06:03:54;;;;;;;21.50;10.50;;;;;;;16.76;100.00;101138.03;4990274;28;20054;-57
2022/10/20 06:06:23;;;;;;;23.33;11.33;;;;;;;16.70;100.00;101138.13;4992652;28;20280;-55
2022/10/20 06:08:49;;;;;;;24.03;11.10;;;;;;;16.98;100.00;101142.94;5000897;28;20034;-57
2022/10/20 06:11:16;;;;;;;22.75;11.30;;;;;;;17.04;100.00;101131.22;4997254;28;20297;-54
2022/10/20 06:13:41;;;;;;;18.63;10.13;;;;;;;17.13;100.00;101133.59;4994008;28;20065;-53
2022/10/20 06:16:13;;;;;;;22.13;11.43;;;;;;;16.98;100.00;101134.84;4994330;28;20042;-53
2022/10/20 06:18:41;;;;;;;24.07;10.47;;;;;;;16.89;100.00;101134.31;5007898;28;20057;-55
2022/10/20 06:21:21;;;;;;;28.73;12.03;;;;;;;16.91;100.00;101144.91;5002064;28;20269;-56
2022/10/20 06:23:47;;;;;;;22.67;11.00;;;;;;;16.94;100.00;101141.75;4994361;28;20265;-53
2022/10/20 06:26:18;;;;;;;20.95;11.63;;;;;;;16.75;100.00;101151.78;4993825;28;20257;-57
2022/10/20 06:28:46;;;;;;;20.67;10.87;;;;;;;16.86;100.00;101155.59;4995128;28;20034;-53
2022/10/20 06:31:17;;;;;;;21.83;11.60;;;;;;;16.85;100.00;101129.63;4994038;28;20329;-56
2022/10/20 06:33:43;;;;;;;24.27;10.97;;;;;;;17.10;100.00;101134.88;5007125;28;20333;-54
2022/10/20 06:36:10;;;;;;;23.53;11.70;;;;;;;17.05;100.00;101132.03;4993690;28;20261;-54
2022/10/20 06:38:37;;;;;;;26.23;11.57;;;;;;;17.12;100.00;101127.34;4992846;28;20300;-56
2022/10/20 06:41:05;;;;;;;21.10;12.13;;;;;;;17.18;100.00;101120.19;5004502;28;20038;-52
2022/10/20 06:43:30;;;;;;;18.73;11.60;;;;;;;17.02;100.00;101110.91;4995556;28;20276;-53
2022/10/20 06:45:58;;;;;;;22.92;11.40;;;;;;;17.34;100.00;101121.38;4997639;28;20287;-56
2022/10/20 06:48:26;;;;;;;21.07;10.90;;;;;;;17.28;100.00;101136.66;4995619;28;20038;-52
2022/10/20 06:50:59;;;;;;;23.10;11.95;;;;;;;17.21;100.00;101135.94;4995468;28;20293;-52
2022/10/20 06:53:25;;;;;;;28.47;11.40;;;;;;;17.58;100.00;101135.75;4994758;28;20065;-56
2022/10/20 06:56:00;;;;;;;22.63;11.13;;;;;;;17.15;100.00;101136.88;4992842;28;20275;-54
2022/10/20 06:58:27;;;;;;;26.40;11.63;;;;;;;17.14;100.00;101130.66;4990298;28;20289;-49
2022/10/20 07:01:04;;;;;;;22.50;11.35;;;;;;;17.37;100.00;101130.91;4997337;28;20268;-54
2022/10/20 07:03:31;;;;;;;23.93;10.93;;;;;;;17.43;100.00;101111.88;5002811;28;20068;-55
2022/10/20 07:05:57;;;;;;;;;;;;;;;17.47;100.00;101106.81;4993624;28;20284;-54
2022/10/20 07:08:25;;;;;;;19.27;9.40;;;;;;;17.30;100.00;101102.13;4994396;28;19953;-54
2022/10/20 07:10:59;;;;;;;22.03;10.33;;;;;;;17.45;100.00;101098.13;4989364;28;20035;-55
2022/10/20 07:13:24;;;;;;;21.87;10.20;;;;;;;17.51;100.00;101099.06;4993145;28;20291;-51
2022/10/20 07:15:53;;;;;;;20.67;11.17;;;;;;;17.45;100.00;101108.94;4986479;28;20313;-56
2022/10/20 07:18:19;;;;;;;21.50;10.77;;;;;;;17.69;100.00;101111.63;5003097;28;20058;-55
2022/10/20 07:20:45;;;;;;;22.38;11.30;;;;;;;17.97;100.00;101107.34;4984892;28;20277;-54
2022/10/20 07:23:10;;;;;;;25.33;10.93;;;;;;;18.00;100.00;101112.31;4986746;28;20035;-50
2022/10/20 07:25:35;;;;;;;18.43;10.70;;;;;;;18.00;100.00;101115.00;4992226;28;20039;-53
2022/10/20 07:28:01;;;;;;;19.97;11.27;;;;;;;17.44;100.00;101108.13;4989395;28;20073;-54
2022/10/20 07:30:27;;;;;;;17.88;10.57;;;;;;;17.85;100.00;101119.03;4986757;28;20051;-51
2022/10/20 07:32:52;;;;;;;20.40;10.47;;;;;;;17.83;100.00;101120.31;4989551;28;20055;-55
2022/10/20 07:35:18;;;;;;;20.65;10.93;;;;;;;17.96;100.00;101103.84;4985033;28;20050;-53
2022/10/20 07:37:44;;;;;;;21.42;10.30;;;;;;;18.13;100.00;101109.34;4983153;28;20038;-57
2022/10/20 07:40:10;;;;;;;20.57;10.40;;;;;;;17.97;100.00;101107.34;4982717;28;20045;-52
2022/10/20 07:42:36;;;;;;;22.42;9.75;;;;;;;18.07;100.00;101123.84;4990308;28;20034;-58
2022/10/20 07:45:01;;;;;;;20.33;10.40;;;;;;;18.20;100.00;101122.75;4987255;28;20027;-54
2022/10/20 07:47:28;;;;;;;21.87;10.13;;;;;;;18.24;100.00;101120.41;4990815;28;20264;-57
2022/10/20 07:49:54;;;;;;;22.83;10.10;;;;;;;18.00;100.00;101125.84;4987553;28;20049;-55
2022/10/20 07:52:19;;;;;;;23.10;10.57;;;;;;;18.24;100.00;101126.63;4991534;28;20303;-55
2022/10/20 07:54:45;;;;;;;22.80;10.13;;;;;;;18.02;100.00;101118.34;4987247;28;20098;-55
2022/10/20 07:57:10;;;;;;;21.58;10.35;;;;;;;18.15;100.00;101115.34;4990417;28;20034;-57
2022/10/20 07:59:36;;;;;;;22.48;9.95;;;;;;;18.56;100.00;101115.31;4993943;28;20069;-57
2022/10/20 08:02:01;;;;;;;21.10;10.13;;;;;;;18.31;100.00;101115.66;4996075;28;20039;-57
2022/10/20 08:04:30;;;;;;;22.83;9.85;;;;;;;18.68;100.00;101104.41;5007285;28;20329;-55
2022/10/20 08:06:56;;;;;;;19.50;9.80;;;;;;;18.68;100.00;101104.41;5002998;28;20030;-55
2022/10/20 08:09:22;;;;;;;24.00;9.43;;;;;;;18.79;100.00;101110.84;4996593;28;20285;-54
2022/10/20 08:11:49;;;;;;;17.47;9.47;;;;;;;18.84;100.00;101107.41;5015087;28;20102;-54
2022/10/20 08:14:14;;;;;;;20.77;10.75;;;;;;;18.90;100.00;101101.00;5007449;28;20268;-56
2022/10/20 08:16:40;;;;;;;20.30;9.40;;;;;;;19.25;100.00;101096.44;5000412;28;20057;-56
2022/10/20 08:19:06;;;;;;;21.23;10.00;;;;;;;19.28;100.00;101099.47;5005224;28;20066;-56
2022/10/20 08:21:33;;;;;;;15.83;8.53;;;;;;;19.40;100.00;101098.59;5004023;28;20083;-56
2022/10/20 08:23:58;;;;;;;21.20;10.40;;;;;;;19.67;100.00;101093.25;5011865;28;20273;-54
2022/10/20 08:26:26;;;;;;;22.13;9.77;;;;;;;19.21;100.00;101096.13;5004917;28;20287;-53
2022/10/20 08:28:53;;;;;;;17.97;9.37;;;;;;;19.32;100.00;101095.19;4999005;28;20031;-57
2022/10/20 08:31:19;;;;;;;21.40;9.70;;;;;;;19.91;100.00;101087.63;4996648;28;20276;-54
2022/10/20 08:33:46;;;;;;;18.23;9.90;;;;;;;20.36;100.00;101093.84;5005192;28;20271;-53
2022/10/20 08:36:13;;;;;;;12.95;9.15;;;;;;;19.98;100.00;101087.44;4999615;28;20276;-50
2022/10/20 08:38:40;;;;;;;19.67;9.20;;;;;;;20.51;100.00;101085.03;5008870;28;20059;-52
2022/10/20 08:41:14;;;;;;;22.00;9.67;;;;;;;19.63;100.00;101082.09;5005255;28;20295;-55
2022/10/20 08:43:41;;;;;;;16.10;8.93;;;;;;;20.17;100.00;101077.06;4987804;28;20348;-54
2022/10/20 08:46:14;;;;;;;20.30;10.67;;;;;;;20.04;100.00;101081.00;5002394;28;20277;-53
2022/10/20 08:48:42;;;;;;;18.77;10.03;;;;;;;19.75;100.00;101083.88;5001752;28;20031;-52
2022/10/20 08:51:22;;;;;;;14.60;8.93;;;;;;;19.61;100.00;101080.69;4995466;28;20300;-56
2022/10/20 08:53:50;;;;;;;15.73;9.07;;;;;;;19.55;100.00;101079.78;5012507;28;20336;-53
2022/10/20 08:56:18;;;;;;;18.33;10.13;;;;;;;19.55;100.00;101073.56;5002024;28;20264;-51
2022/10/20 08:58:45;;;;;;;19.67;9.33;;;;;;;19.61;100.00;101076.09;4999499;28;20353;-49
2022/10/20 09:01:20;;;;;;;17.47;10.37;;;;;;;19.73;100.00;101080.59;5011233;28;20302;-52
2022/10/20 09:03:50;;;;;;;22.93;9.97;;;;;;;19.53;100.00;101065.66;5002983;28;20280;-52
2022/10/20 09:06:16;;;;;;;20.40;10.37;;;;;;;19.80;100.00;101064.94;5011698;28;20284;-53
2022/10/20 09:08:43;;;;;;;20.00;11.25;;;;;;;19.76;100.00;101063.78;5012436;28;20296;-49
2022/10/20 09:11:31;;;;;;;14.73;9.90;;;;;;;19.81;100.00;101052.19;5010505;28;20061;-54
2022/10/20 09:13:56;;;;;;;23.27;9.63;;;;;;;20.03;100.00;101046.78;5001491;28;20271;-52
2022/10/20 09:16:36;;;;;;;20.35;10.77;;;;;;;19.45;100.00;101049.84;5012210;28;20045;-51
2022/10/20 09:19:04;;;;;;;16.90;10.23;;;;;;;19.55;100.00;101057.28;5001337;28;20045;-48
2022/10/20 09:21:31;;;;;;;18.10;10.03;;;;;;;19.60;100.00;101055.44;4996711;28;20273;-50
2022/10/20 09:24:03;;;;;;;19.30;10.73;;;;;;;19.67;100.00;101043.63;4998199;28;20280;-51
2022/10/20 09:26:43;;;;;;;18.47;10.10;;;;;;;19.31;100.00;101054.78;4999457;28;20336;-52
2022/10/20 09:29:11;;;;;;;22.70;10.73;;;;;;;19.99;100.00;101046.47;4996744;28;20322;-54
2022/10/20 09:31:39;;;;;;;19.13;11.07;;;;;;;19.89;100.00;101052.56;5014683;28;20280;-52
2022/10/20 09:34:22;;;;;;;24.80;10.77;;;;;;;20.10;100.00;101042.00;5009380;28;20303;-50
2022/10/20 09:36:50;;;;;;;19.27;10.83;;;;;;;20.39;100.00;101052.59;5006171;28;20311;-52
2022/10/20 09:39:20;;;;;;;18.83;10.70;;;;;;;20.60;100.00;101050.06;5013115;28;20279;-52
2022/10/20 09:41:46;;;;;;;23.23;11.27;;;;;;;20.48;100.00;101048.31;5013245;28;20280;-52
2022/10/20 09:44:22;;;;;;;16.67;10.93;;;;;;;20.29;100.00;101047.88;4998510;28;20310;-53
2022/10/20 09:46:51;;;;;;;21.07;9.90;;;;;;;20.74;100.00;101045.84;4993849;28;20281;-54
2022/10/20 09:49:37;;;;;;;20.27;10.63;;;;;;;20.88;100.00;101051.72;4990682;28;20283;-49
2022/10/20 09:52:15;;;;;;;16.70;10.67;;;;;;;20.80;100.00;101048.66;5001471;28;20289;-51
2022/10/20 09:54:46;;;;;;;17.30;10.13;;;;;;;20.77;100.00;101058.09;5003712;28;20260;-52
2022/10/20 09:57:18;;;;;;;24.97;11.30;;;;;;;20.77;100.00;101048.06;4997875;28;20268;-52
2022/10/20 09:59:45;;;;;;;21.20;11.53;;;;;;;20.49;100.00;101043.72;4997418;28;20273;-58
2022/10/20 10:02:14;;;;;;;26.03;11.73;;;;;;;20.91;100.00;101061.22;4991587;28;20269;-51
2022/10/20 10:04:44;;;;;;;22.13;11.40;;;;;;;20.85;100.00;101045.97;4992497;28;20268;-51
2022/10/20 10:07:24;;;;;;;21.60;12.10;;;;;;;21.06;100.00;101053.19;4984913;28;20274;-52
2022/10/20 10:09:56;;;;;;;21.60;11.47;;;;;;;20.43;100.00;101042.06;4986058;28;20302;-53
2022/10/20 10:12:24;;;;;;;21.83;11.23;;;;;;;20.63;100.00;101049.56;4987699;28;20315;-52
2022/10/20 10:14:55;;;;;;;21.17;11.00;;;;;;;20.10;100.00;101050.13;4995392;28;20288;-50
2022/10/20 10:17:39;;;;;;;15.40;10.63;;;;;;;20.41;100.00;101049.59;4991835;28;20283;-50
2022/10/20 10:20:30;;;;;;;22.23;12.03;;;;;;;20.45;100.00;101042.59;4988118;28;20276;-51
2022/10/20 10:23:17;;;;;;;21.03;10.33;;;;;;;20.47;100.00;101043.16;4995762;28;20261;-51
2022/10/20 10:25:43;;;;;;;18.02;11.73;;;;;;;20.44;100.00;101025.47;4990565;28;20298;-51
2022/10/20 10:28:36;;;;;;;20.20;10.60;;;;;;;21.08;100.00;101024.94;4990761;28;20026;-53
2022/10/20 10:31:22;;;;;;;23.33;12.50;;;;;;;20.54;100.00;101013.09;4996911;28;20042;-51
2022/10/20 10:33:55;;;;;;;21.97;12.57;;;;;;;20.34;100.00;101025.41;4999965;28;20285;-51
2022/10/20 10:36:28;;;;;;;21.87;12.40;;;;;;;20.35;100.00;101019.69;4997483;28;20270;-53
2022/10/20 10:38:55;;;;;;;21.77;12.57;;;;;;;20.30;100.00;101029.72;5017806;28;20295;-48
2022/10/20 10:41:48;;;;;;;25.25;13.02;;;;;;;20.43;100.00;101028.47;5004030;28;20288;-50
2022/10/20 10:44:23;;;;;;;32.10;13.50;;;;;;;20.02;100.00;101031.56;4997707;28;20035;-51
2022/10/20 10:47:27;;;;;;;26.53;14.47;;;;;;;20.14;100.00;101026.00;5006384;28;20264;-53
2022/10/20 10:50:04;;;;;;;26.57;13.73;;;;;;;19.70;100.00;101021.41;5023117;28;20282;-50
2022/10/20 10:52:57;;;;;;;29.13;14.93;;;;;;;19.99;100.00;101004.94;5062171;28;20282;-53
2022/10/20 10:55:49;;;;;;;35.03;16.90;;;;;;;20.19;100.00;100991.56;5060937;28;20266;-54
2022/10/20 10:58:34;;;;;;;31.27;16.73;;;;;;;20.15;100.00;100998.59;5031589;28;20444;-48
2022/10/20 11:01:02;;;;;;;39.33;17.00;;;;;;;19.79;100.00;100995.44;5052862;28;20278;-52
2022/10/20 11:03:50;;;;;;;31.10;17.60;;;;;;;20.24;100.00;100981.84;5049826;28;20281;-51
2022/10/20 11:06:32;;;;;;;45.17;18.33;;;;;;;20.74;100.00;100972.47;5055507;28;20298;-53
2022/10/20 11:09:16;;;;;;;36.10;18.00;;;;;;;20.40;100.00;100975.47;5052587;28;20295;-54
2022/10/20 11:11:57;;;;;;;39.30;18.17;;;;;;;20.26;100.00;100974.25;5054675;28;20270;-53
2022/10/20 11:15:11;;;;;;;42.90;19.40;;;;;;;20.34;100.00;100974.59;5060203;28;20354;-51
2022/10/20 11:18:08;;;;;;;44.30;19.63;;;;;;;20.11;100.00;100978.47;4961981;29;20353;-52